sensor_id;sensor_type;location;lat;lon;timestamp;P1;durP1;ratioP1;P2;durP2;ratioP2
38023;SDS011;23834;48.080;11.682;2022-11-20T00:02:08;1.67;;;1.57;;
38023;SDS011;23834;48.080;11.682;2022-11-20T00:04:34;2.47;;;2.27;;
38023;SDS011;23834;48.080;11.682;2022-11-20T00:06:59;1.70;;;1.60;;
38023;SDS011;23834;48.080;11.682;2022-11-20T00:09:24;1.40;;;1.30;;
38023;SDS011;23834;48.080;11.682;2022-11-20T00:11:49;3.90;;;2.17;;
38023;SDS011;23834;48.080;11.682;2022-11-20T00:14:14;2.00;;;1.90;;
38023;SDS011;23834;48.080;11.682;2022-11-20T00:16:40;1.87;;;1.77;;
38023;SDS011;23834;48.080;11.682;2022-11-20T00:19:05;2.00;;;1.90;;
38023;SDS011;23834;48.080;11.682;2022-11-20T00:21:31;1.73;;;1.63;;
38023;SDS011;23834;48.080;11.682;2022-11-20T00:23:56;1.80;;;1.70;;
38023;SDS011;23834;48.080;11.682;2022-11-20T00:26:23;2.90;;;1.67;;
38023;SDS011;23834;48.080;11.682;2022-11-20T00:28:52;1.87;;;1.77;;
38023;SDS011;23834;48.080;11.682;2022-11-20T00:31:18;1.93;;;1.80;;
38023;SDS011;23834;48.080;11.682;2022-11-20T00:33:43;1.90;;;1.60;;
38023;SDS011;23834;48.080;11.682;2022-11-20T00:36:18;1.37;;;1.27;;
38023;SDS011;23834;48.080;11.682;2022-11-20T00:38:44;1.50;;;1.40;;
38023;SDS011;23834;48.080;11.682;2022-11-20T00:41:11;1.37;;;1.27;;
38023;SDS011;23834;48.080;11.682;2022-11-20T00:43:36;1.53;;;1.43;;
38023;SDS011;23834;48.080;11.682;2022-11-20T00:46:03;1.70;;;1.60;;
38023;SDS011;23834;48.080;11.682;2022-11-20T00:48:28;1.77;;;1.67;;
38023;SDS011;23834;48.080;11.682;2022-11-20T00:50:54;1.43;;;1.33;;
38023;SDS011;23834;48.080;11.682;2022-11-20T00:53:19;1.50;;;1.40;;
38023;SDS011;23834;48.080;11.682;2022-11-20T00:58:23;1.60;;;1.50;;
38023;SDS011;23834;48.080;11.682;2022-11-20T01:00:48;1.53;;;1.43;;
38023;SDS011;23834;48.080;11.682;2022-11-20T01:03:14;1.43;;;1.33;;
38023;SDS011;23834;48.080;11.682;2022-11-20T01:05:39;1.33;;;1.23;;
38023;SDS011;23834;48.080;11.682;2022-11-20T01:08:05;1.50;;;1.40;;
38023;SDS011;23834;48.080;11.682;2022-11-20T01:10:30;1.10;;;1.00;;
38023;SDS011;23834;48.080;11.682;2022-11-20T01:12:55;1.50;;;1.40;;
38023;SDS011;23834;48.080;11.682;2022-11-20T01:15:39;1.43;;;1.33;;
38023;SDS011;23834;48.080;11.682;2022-11-20T01:18:04;1.30;;;1.20;;
38023;SDS011;23834;48.080;11.682;2022-11-20T01:20:30;1.57;;;1.47;;
38023;SDS011;23834;48.080;11.682;2022-11-20T01:22:58;1.30;;;1.20;;
38023;SDS011;23834;48.080;11.682;2022-11-20T01:25:23;1.47;;;1.37;;
38023;SDS011;23834;48.080;11.682;2022-11-20T01:27:48;1.40;;;1.30;;
38023;SDS011;23834;48.080;11.682;2022-11-20T01:30:14;1.60;;;1.50;;
38023;SDS011;23834;48.080;11.682;2022-11-20T01:32:39;1.57;;;1.30;;
38023;SDS011;23834;48.080;11.682;2022-11-20T01:35:04;1.23;;;1.13;;
38023;SDS011;23834;48.080;11.682;2022-11-20T01:37:29;1.40;;;1.30;;
38023;SDS011;23834;48.080;11.682;2022-11-20T01:39:55;1.80;;;1.30;;
38023;SDS011;23834;48.080;11.682;2022-11-20T01:42:20;1.30;;;1.20;;
38023;SDS011;23834;48.080;11.682;2022-11-20T01:45:42;1.57;;;1.30;;
38023;SDS011;23834;48.080;11.682;2022-11-20T01:47:48;1.47;;;1.37;;
38023;SDS011;23834;48.080;11.682;2022-11-20T01:50:33;1.67;;;1.20;;
38023;SDS011;23834;48.080;11.682;2022-11-20T01:53:02;1.27;;;1.17;;
38023;SDS011;23834;48.080;11.682;2022-11-20T01:55:30;1.40;;;1.40;;
38023;SDS011;23834;48.080;11.682;2022-11-20T01:57:56;1.00;;;1.00;;
38023;SDS011;23834;48.080;11.682;2022-11-20T02:00:21;1.50;;;1.40;;
38023;SDS011;23834;48.080;11.682;2022-11-20T02:02:51;1.33;;;1.17;;
38023;SDS011;23834;48.080;11.682;2022-11-20T02:07:48;1.30;;;1.20;;
38023;SDS011;23834;48.080;11.682;2022-11-20T02:10:14;0.93;;;0.93;;
38023;SDS011;23834;48.080;11.682;2022-11-20T02:12:39;1.00;;;1.00;;
38023;SDS011;23834;48.080;11.682;2022-11-20T02:15:22;1.57;;;1.17;;
38023;SDS011;23834;48.080;11.682;2022-11-20T02:17:48;1.13;;;1.03;;
38023;SDS011;23834;48.080;11.682;2022-11-20T02:20:13;1.40;;;1.27;;
38023;SDS011;23834;48.080;11.682;2022-11-20T02:22:42;1.27;;;1.17;;
38023;SDS011;23834;48.080;11.682;2022-11-20T02:25:10;1.20;;;0.97;;
38023;SDS011;23834;48.080;11.682;2022-11-20T02:27:36;1.30;;;1.20;;
38023;SDS011;23834;48.080;11.682;2022-11-20T02:30:02;1.10;;;1.07;;
38023;SDS011;23834;48.080;11.682;2022-11-20T02:32:29;1.10;;;0.90;;
38023;SDS011;23834;48.080;11.682;2022-11-20T02:34:55;1.20;;;1.10;;
38023;SDS011;23834;48.080;11.682;2022-11-20T02:37:20;1.03;;;1.00;;
38023;SDS011;23834;48.080;11.682;2022-11-20T02:39:46;1.40;;;1.30;;
38023;SDS011;23834;48.080;11.682;2022-11-20T02:42:12;1.30;;;1.30;;
38023;SDS011;23834;48.080;11.682;2022-11-20T02:44:37;0.80;;;0.80;;
38023;SDS011;23834;48.080;11.682;2022-11-20T02:47:02;0.80;;;0.80;;
38023;SDS011;23834;48.080;11.682;2022-11-20T02:49:28;1.20;;;1.20;;
38023;SDS011;23834;48.080;11.682;2022-11-20T02:51:53;1.40;;;1.30;;
38023;SDS011;23834;48.080;11.682;2022-11-20T02:54:18;1.20;;;1.10;;
38023;SDS011;23834;48.080;11.682;2022-11-20T02:56:43;1.30;;;1.20;;
38023;SDS011;23834;48.080;11.682;2022-11-20T02:59:09;1.20;;;1.10;;
38023;SDS011;23834;48.080;11.682;2022-11-20T03:01:35;1.10;;;1.10;;
38023;SDS011;23834;48.080;11.682;2022-11-20T03:04:00;1.03;;;1.00;;
38023;SDS011;23834;48.080;11.682;2022-11-20T03:06:25;1.23;;;1.13;;
38023;SDS011;23834;48.080;11.682;2022-11-20T03:08:50;1.17;;;0.93;;
38023;SDS011;23834;48.080;11.682;2022-11-20T03:11:15;1.20;;;1.10;;
38023;SDS011;23834;48.080;11.682;2022-11-20T03:13:41;1.67;;;1.00;;
38023;SDS011;23834;48.080;11.682;2022-11-20T03:16:08;1.27;;;1.17;;
38023;SDS011;23834;48.080;11.682;2022-11-20T03:18:34;1.10;;;1.00;;
38023;SDS011;23834;48.080;11.682;2022-11-20T03:20:59;1.47;;;1.37;;
38023;SDS011;23834;48.080;11.682;2022-11-20T03:23:24;1.30;;;1.20;;
38023;SDS011;23834;48.080;11.682;2022-11-20T03:25:50;1.00;;;1.00;;
38023;SDS011;23834;48.080;11.682;2022-11-20T03:28:15;0.80;;;0.80;;
38023;SDS011;23834;48.080;11.682;2022-11-20T03:30:40;0.90;;;0.90;;
38023;SDS011;23834;48.080;11.682;2022-11-20T03:33:05;1.00;;;1.00;;
38023;SDS011;23834;48.080;11.682;2022-11-20T03:35:31;0.90;;;0.90;;
38023;SDS011;23834;48.080;11.682;2022-11-20T03:37:56;1.17;;;1.07;;
38023;SDS011;23834;48.080;11.682;2022-11-20T03:40:22;1.27;;;0.87;;
38023;SDS011;23834;48.080;11.682;2022-11-20T03:42:47;1.40;;;1.30;;
38023;SDS011;23834;48.080;11.682;2022-11-20T03:45:13;1.00;;;1.00;;
38023;SDS011;23834;48.080;11.682;2022-11-20T03:47:38;1.20;;;1.10;;
38023;SDS011;23834;48.080;11.682;2022-11-20T03:50:04;1.00;;;1.00;;
38023;SDS011;23834;48.080;11.682;2022-11-20T03:52:29;1.00;;;1.00;;
38023;SDS011;23834;48.080;11.682;2022-11-20T03:54:54;1.73;;;1.00;;
38023;SDS011;23834;48.080;11.682;2022-11-20T03:57:19;1.30;;;1.20;;
38023;SDS011;23834;48.080;11.682;2022-11-20T03:59:45;1.00;;;1.00;;
38023;SDS011;23834;48.080;11.682;2022-11-20T04:02:10;0.97;;;0.87;;
38023;SDS011;23834;48.080;11.682;2022-11-20T04:04:35;1.03;;;1.03;;
38023;SDS011;23834;48.080;11.682;2022-11-20T04:07:00;1.00;;;1.00;;
38023;SDS011;23834;48.080;11.682;2022-11-20T04:09:25;0.93;;;0.93;;
38023;SDS011;23834;48.080;11.682;2022-11-20T04:11:50;1.10;;;1.00;;
38023;SDS011;23834;48.080;11.682;2022-11-20T04:14:16;0.70;;;0.67;;
38023;SDS011;23834;48.080;11.682;2022-11-20T04:16:41;0.97;;;0.97;;
38023;SDS011;23834;48.080;11.682;2022-11-20T04:19:09;1.20;;;1.10;;
38023;SDS011;23834;48.080;11.682;2022-11-20T04:21:35;2.27;;;1.07;;
38023;SDS011;23834;48.080;11.682;2022-11-20T04:24:00;1.27;;;1.17;;
38023;SDS011;23834;48.080;11.682;2022-11-20T04:26:26;1.00;;;1.00;;
38023;SDS011;23834;48.080;11.682;2022-11-20T04:28:51;0.90;;;0.90;;
38023;SDS011;23834;48.080;11.682;2022-11-20T04:31:18;1.03;;;0.93;;
38023;SDS011;23834;48.080;11.682;2022-11-20T04:33:43;1.00;;;1.00;;
38023;SDS011;23834;48.080;11.682;2022-11-20T04:38:37;1.10;;;1.10;;
38023;SDS011;23834;48.080;11.682;2022-11-20T04:41:03;0.80;;;0.80;;
38023;SDS011;23834;48.080;11.682;2022-11-20T04:43:29;1.00;;;1.00;;
38023;SDS011;23834;48.080;11.682;2022-11-20T04:45:55;1.23;;;1.13;;
38023;SDS011;23834;48.080;11.682;2022-11-20T04:48:20;1.00;;;1.00;;
38023;SDS011;23834;48.080;11.682;2022-11-20T04:50:45;0.90;;;0.90;;
38023;SDS011;23834;48.080;11.682;2022-11-20T04:53:11;1.10;;;1.00;;
38023;SDS011;23834;48.080;11.682;2022-11-20T04:55:36;1.07;;;1.07;;
38023;SDS011;23834;48.080;11.682;2022-11-20T04:58:01;0.90;;;0.90;;
38023;SDS011;23834;48.080;11.682;2022-11-20T05:00:26;0.90;;;0.90;;
38023;SDS011;23834;48.080;11.682;2022-11-20T05:02:51;1.10;;;1.00;;
38023;SDS011;23834;48.080;11.682;2022-11-20T05:05:17;0.90;;;0.90;;
38023;SDS011;23834;48.080;11.682;2022-11-20T05:07:42;1.40;;;1.30;;
38023;SDS011;23834;48.080;11.682;2022-11-20T05:10:07;1.00;;;1.00;;
38023;SDS011;23834;48.080;11.682;2022-11-20T05:12:32;0.90;;;0.87;;
38023;SDS011;23834;48.080;11.682;2022-11-20T05:14:57;1.10;;;1.00;;
38023;SDS011;23834;48.080;11.682;2022-11-20T05:17:23;0.80;;;0.80;;
38023;SDS011;23834;48.080;11.682;2022-11-20T05:19:48;0.77;;;0.77;;
38023;SDS011;23834;48.080;11.682;2022-11-20T05:22:13;0.90;;;0.90;;
38023;SDS011;23834;48.080;11.682;2022-11-20T05:24:38;1.07;;;1.07;;
38023;SDS011;23834;48.080;11.682;2022-11-20T05:27:03;1.10;;;1.00;;
38023;SDS011;23834;48.080;11.682;2022-11-20T05:29:29;1.00;;;1.00;;
38023;SDS011;23834;48.080;11.682;2022-11-20T05:31:54;1.07;;;0.90;;
38023;SDS011;23834;48.080;11.682;2022-11-20T05:34:19;1.00;;;1.00;;
38023;SDS011;23834;48.080;11.682;2022-11-20T05:36:44;0.97;;;0.97;;
38023;SDS011;23834;48.080;11.682;2022-11-20T05:39:09;0.90;;;0.90;;
38023;SDS011;23834;48.080;11.682;2022-11-20T05:41:35;0.90;;;0.90;;
38023;SDS011;23834;48.080;11.682;2022-11-20T05:44:00;1.17;;;0.90;;
38023;SDS011;23834;48.080;11.682;2022-11-20T05:46:25;1.10;;;1.00;;
38023;SDS011;23834;48.080;11.682;2022-11-20T05:48:51;1.37;;;0.87;;
38023;SDS011;23834;48.080;11.682;2022-11-20T05:51:17;1.20;;;1.10;;
38023;SDS011;23834;48.080;11.682;2022-11-20T05:53:42;0.90;;;0.90;;
38023;SDS011;23834;48.080;11.682;2022-11-20T05:56:09;0.83;;;0.70;;
38023;SDS011;23834;48.080;11.682;2022-11-20T05:58:35;0.90;;;0.90;;
38023;SDS011;23834;48.080;11.682;2022-11-20T06:01:18;0.87;;;0.87;;
38023;SDS011;23834;48.080;11.682;2022-11-20T06:03:43;1.30;;;1.20;;
38023;SDS011;23834;48.080;11.682;2022-11-20T06:06:12;0.97;;;0.83;;
38023;SDS011;23834;48.080;11.682;2022-11-20T06:08:38;1.07;;;1.07;;
38023;SDS011;23834;48.080;11.682;2022-11-20T06:11:10;1.00;;;1.00;;
38023;SDS011;23834;48.080;11.682;2022-11-20T06:13:35;1.10;;;1.00;;
38023;SDS011;23834;48.080;11.682;2022-11-20T06:16:01;0.90;;;0.90;;
38023;SDS011;23834;48.080;11.682;2022-11-20T06:18:27;1.00;;;0.90;;
38023;SDS011;23834;48.080;11.682;2022-11-20T06:20:59;0.70;;;0.70;;
38023;SDS011;23834;48.080;11.682;2022-11-20T06:23:24;1.03;;;1.03;;
38023;SDS011;23834;48.080;11.682;2022-11-20T06:25:49;1.00;;;1.00;;
38023;SDS011;23834;48.080;11.682;2022-11-20T06:28:14;1.17;;;1.00;;
38023;SDS011;23834;48.080;11.682;2022-11-20T06:30:44;0.90;;;0.90;;
38023;SDS011;23834;48.080;11.682;2022-11-20T06:33:09;0.87;;;0.87;;
38023;SDS011;23834;48.080;11.682;2022-11-20T06:35:34;0.80;;;0.80;;
38023;SDS011;23834;48.080;11.682;2022-11-20T06:37:59;1.63;;;1.00;;
38023;SDS011;23834;48.080;11.682;2022-11-20T06:40:24;0.90;;;0.90;;
38023;SDS011;23834;48.080;11.682;2022-11-20T06:42:50;1.07;;;0.83;;
38023;SDS011;23834;48.080;11.682;2022-11-20T06:45:15;0.80;;;0.80;;
38023;SDS011;23834;48.080;11.682;2022-11-20T06:47:40;1.17;;;1.13;;
38023;SDS011;23834;48.080;11.682;2022-11-20T06:50:05;1.00;;;1.00;;
38023;SDS011;23834;48.080;11.682;2022-11-20T06:52:31;1.07;;;1.00;;
38023;SDS011;23834;48.080;11.682;2022-11-20T06:54:56;1.40;;;1.30;;
38023;SDS011;23834;48.080;11.682;2022-11-20T06:57:21;1.00;;;0.90;;
38023;SDS011;23834;48.080;11.682;2022-11-20T06:59:46;0.90;;;0.90;;
38023;SDS011;23834;48.080;11.682;2022-11-20T07:02:11;1.17;;;1.07;;
38023;SDS011;23834;48.080;11.682;2022-11-20T07:04:37;0.80;;;0.80;;
38023;SDS011;23834;48.080;11.682;2022-11-20T07:07:02;1.30;;;1.20;;
38023;SDS011;23834;48.080;11.682;2022-11-20T07:09:27;1.30;;;1.20;;
38023;SDS011;23834;48.080;11.682;2022-11-20T07:11:53;1.37;;;0.83;;
38023;SDS011;23834;48.080;11.682;2022-11-20T07:14:18;0.80;;;0.80;;
38023;SDS011;23834;48.080;11.682;2022-11-20T07:16:43;1.33;;;1.23;;
38023;SDS011;23834;48.080;11.682;2022-11-20T07:19:08;1.00;;;0.90;;
38023;SDS011;23834;48.080;11.682;2022-11-20T07:21:33;1.30;;;1.20;;
38023;SDS011;23834;48.080;11.682;2022-11-20T07:23:59;1.10;;;1.10;;
38023;SDS011;23834;48.080;11.682;2022-11-20T07:26:24;0.90;;;0.80;;
38023;SDS011;23834;48.080;11.682;2022-11-20T07:28:49;0.90;;;0.90;;
38023;SDS011;23834;48.080;11.682;2022-11-20T07:31:14;1.10;;;1.00;;
38023;SDS011;23834;48.080;11.682;2022-11-20T07:33:39;1.00;;;1.00;;
38023;SDS011;23834;48.080;11.682;2022-11-20T07:36:05;1.13;;;0.93;;
38023;SDS011;23834;48.080;11.682;2022-11-20T07:38:30;1.37;;;1.27;;
38023;SDS011;23834;48.080;11.682;2022-11-20T07:40:58;1.30;;;1.20;;
38023;SDS011;23834;48.080;11.682;2022-11-20T07:43:26;0.80;;;0.80;;
38023;SDS011;23834;48.080;11.682;2022-11-20T07:45:51;0.90;;;0.90;;
38023;SDS011;23834;48.080;11.682;2022-11-20T07:48:17;0.90;;;0.90;;
38023;SDS011;23834;48.080;11.682;2022-11-20T07:50:42;1.67;;;1.20;;
38023;SDS011;23834;48.080;11.682;2022-11-20T07:53:07;0.97;;;0.97;;
38023;SDS011;23834;48.080;11.682;2022-11-20T07:55:33;1.33;;;1.33;;
38023;SDS011;23834;48.080;11.682;2022-11-20T07:57:58;1.43;;;1.33;;
38023;SDS011;23834;48.080;11.682;2022-11-20T08:00:23;1.30;;;1.20;;
38023;SDS011;23834;48.080;11.682;2022-11-20T08:02:49;0.93;;;0.93;;
38023;SDS011;23834;48.080;11.682;2022-11-20T08:05:14;1.40;;;1.30;;
38023;SDS011;23834;48.080;11.682;2022-11-20T08:07:40;1.13;;;1.13;;
38023;SDS011;23834;48.080;11.682;2022-11-20T08:10:06;2.00;;;1.10;;
38023;SDS011;23834;48.080;11.682;2022-11-20T08:12:32;1.20;;;1.10;;
38023;SDS011;23834;48.080;11.682;2022-11-20T08:15:15;0.90;;;0.90;;
38023;SDS011;23834;48.080;11.682;2022-11-20T08:17:41;0.83;;;0.83;;
38023;SDS011;23834;48.080;11.682;2022-11-20T08:20:06;1.00;;;1.00;;
38023;SDS011;23834;48.080;11.682;2022-11-20T08:22:31;1.20;;;1.13;;
38023;SDS011;23834;48.080;11.682;2022-11-20T08:24:57;1.03;;;1.03;;
38023;SDS011;23834;48.080;11.682;2022-11-20T08:27:22;0.90;;;0.90;;
38023;SDS011;23834;48.080;11.682;2022-11-20T08:29:47;1.40;;;1.30;;
38023;SDS011;23834;48.080;11.682;2022-11-20T08:32:13;1.37;;;1.27;;
38023;SDS011;23834;48.080;11.682;2022-11-20T08:34:38;1.37;;;1.27;;
38023;SDS011;23834;48.080;11.682;2022-11-20T08:37:03;0.90;;;0.90;;
38023;SDS011;23834;48.080;11.682;2022-11-20T08:39:28;1.10;;;1.00;;
38023;SDS011;23834;48.080;11.682;2022-11-20T08:41:53;0.90;;;0.90;;
38023;SDS011;23834;48.080;11.682;2022-11-20T08:44:19;0.93;;;0.93;;
38023;SDS011;23834;48.080;11.682;2022-11-20T08:46:44;1.00;;;1.00;;
38023;SDS011;23834;48.080;11.682;2022-11-20T08:49:11;0.80;;;0.80;;
38023;SDS011;23834;48.080;11.682;2022-11-20T08:51:36;1.63;;;1.10;;
38023;SDS011;23834;48.080;11.682;2022-11-20T08:54:02;1.00;;;1.00;;
38023;SDS011;23834;48.080;11.682;2022-11-20T08:56:28;0.90;;;0.90;;
38023;SDS011;23834;48.080;11.682;2022-11-20T08:58:53;1.10;;;1.03;;
38023;SDS011;23834;48.080;11.682;2022-11-20T09:01:19;1.30;;;1.20;;
38023;SDS011;23834;48.080;11.682;2022-11-20T09:03:45;0.90;;;0.90;;
38023;SDS011;23834;48.080;11.682;2022-11-20T09:06:10;0.70;;;0.70;;
38023;SDS011;23834;48.080;11.682;2022-11-20T09:08:35;0.83;;;0.83;;
38023;SDS011;23834;48.080;11.682;2022-11-20T09:11:01;1.30;;;1.20;;
38023;SDS011;23834;48.080;11.682;2022-11-20T09:13:27;1.10;;;1.10;;
38023;SDS011;23834;48.080;11.682;2022-11-20T09:15:53;0.80;;;0.80;;
38023;SDS011;23834;48.080;11.682;2022-11-20T09:18:18;1.07;;;1.07;;
38023;SDS011;23834;48.080;11.682;2022-11-20T09:20:43;1.03;;;1.00;;
38023;SDS011;23834;48.080;11.682;2022-11-20T09:23:09;0.83;;;0.83;;
38023;SDS011;23834;48.080;11.682;2022-11-20T09:25:34;0.73;;;0.73;;
38023;SDS011;23834;48.080;11.682;2022-11-20T09:27:59;0.83;;;0.83;;
38023;SDS011;23834;48.080;11.682;2022-11-20T09:30:25;0.83;;;0.83;;
38023;SDS011;23834;48.080;11.682;2022-11-20T09:32:50;1.00;;;1.00;;
38023;SDS011;23834;48.080;11.682;2022-11-20T09:35:16;1.10;;;1.00;;
38023;SDS011;23834;48.080;11.682;2022-11-20T09:37:42;0.90;;;0.90;;
38023;SDS011;23834;48.080;11.682;2022-11-20T09:40:13;1.10;;;1.00;;
38023;SDS011;23834;48.080;11.682;2022-11-20T09:42:47;0.80;;;0.80;;
38023;SDS011;23834;48.080;11.682;2022-11-20T09:50:32;1.20;;;1.10;;
38023;SDS011;23834;48.080;11.682;2022-11-20T09:53:33;1.10;;;1.00;;
38023;SDS011;23834;48.080;11.682;2022-11-20T09:55:49;1.53;;;0.90;;
38023;SDS011;23834;48.080;11.682;2022-11-20T09:58:17;0.90;;;0.90;;
38023;SDS011;23834;48.080;11.682;2022-11-20T10:00:44;1.07;;;1.03;;
38023;SDS011;23834;48.080;11.682;2022-11-20T10:05:39;0.90;;;0.90;;
38023;SDS011;23834;48.080;11.682;2022-11-20T10:20:16;1.30;;;1.20;;
38023;SDS011;23834;48.080;11.682;2022-11-20T10:22:47;1.13;;;1.03;;
38023;SDS011;23834;48.080;11.682;2022-11-20T10:25:16;1.10;;;1.10;;
38023;SDS011;23834;48.080;11.682;2022-11-20T10:27:49;0.83;;;0.83;;
38023;SDS011;23834;48.080;11.682;2022-11-20T10:30:19;1.13;;;1.13;;
38023;SDS011;23834;48.080;11.682;2022-11-20T10:32:47;0.90;;;0.90;;
38023;SDS011;23834;48.080;11.682;2022-11-20T10:37:39;1.13;;;1.03;;
38023;SDS011;23834;48.080;11.682;2022-11-20T10:40:14;1.60;;;1.20;;
38023;SDS011;23834;48.080;11.682;2022-11-20T10:45:27;1.27;;;1.17;;
38023;SDS011;23834;48.080;11.682;2022-11-20T10:48:00;1.03;;;1.00;;
38023;SDS011;23834;48.080;11.682;2022-11-20T10:50:32;0.90;;;0.90;;
38023;SDS011;23834;48.080;11.682;2022-11-20T10:53:04;0.80;;;0.80;;
38023;SDS011;23834;48.080;11.682;2022-11-20T10:55:44;0.87;;;0.87;;
38023;SDS011;23834;48.080;11.682;2022-11-20T10:58:17;1.07;;;1.00;;
38023;SDS011;23834;48.080;11.682;2022-11-20T11:00:44;1.20;;;1.00;;
38023;SDS011;23834;48.080;11.682;2022-11-20T11:03:28;1.20;;;1.10;;
38023;SDS011;23834;48.080;11.682;2022-11-20T11:05:54;1.10;;;1.10;;
38023;SDS011;23834;48.080;11.682;2022-11-20T11:08:21;0.87;;;0.87;;
38023;SDS011;23834;48.080;11.682;2022-11-20T11:10:49;1.13;;;1.03;;
38023;SDS011;23834;48.080;11.682;2022-11-20T11:13:20;0.90;;;0.90;;
38023;SDS011;23834;48.080;11.682;2022-11-20T11:15:45;0.80;;;0.80;;
38023;SDS011;23834;48.080;11.682;2022-11-20T11:18:11;0.90;;;0.90;;
38023;SDS011;23834;48.080;11.682;2022-11-20T11:20:36;1.00;;;1.00;;
38023;SDS011;23834;48.080;11.682;2022-11-20T11:23:01;0.90;;;0.90;;
38023;SDS011;23834;48.080;11.682;2022-11-20T11:25:31;1.83;;;1.10;;
38023;SDS011;23834;48.080;11.682;2022-11-20T11:27:59;1.00;;;1.00;;
38023;SDS011;23834;48.080;11.682;2022-11-20T11:30:26;1.10;;;1.00;;
38023;SDS011;23834;48.080;11.682;2022-11-20T11:33:01;2.83;;;0.80;;
38023;SDS011;23834;48.080;11.682;2022-11-20T11:35:27;0.80;;;0.80;;
38023;SDS011;23834;48.080;11.682;2022-11-20T11:38:03;0.87;;;0.80;;
38023;SDS011;23834;48.080;11.682;2022-11-20T11:40:29;1.17;;;1.10;;
38023;SDS011;23834;48.080;11.682;2022-11-20T11:42:59;0.80;;;0.80;;
38023;SDS011;23834;48.080;11.682;2022-11-20T11:45:25;0.80;;;0.80;;
38023;SDS011;23834;48.080;11.682;2022-11-20T11:47:51;1.00;;;1.00;;
38023;SDS011;23834;48.080;11.682;2022-11-20T11:50:21;0.70;;;0.70;;
38023;SDS011;23834;48.080;11.682;2022-11-20T11:52:53;0.70;;;0.70;;
38023;SDS011;23834;48.080;11.682;2022-11-20T12:00:45;1.10;;;1.00;;
38023;SDS011;23834;48.080;11.682;2022-11-20T12:03:48;0.97;;;0.70;;
38023;SDS011;23834;48.080;11.682;2022-11-20T12:06:12;1.00;;;1.00;;
38023;SDS011;23834;48.080;11.682;2022-11-20T12:08:49;0.73;;;0.63;;
38023;SDS011;23834;48.080;11.682;2022-11-20T12:11:23;0.77;;;0.77;;
38023;SDS011;23834;48.080;11.682;2022-11-20T12:16:17;0.70;;;0.60;;
38023;SDS011;23834;48.080;11.682;2022-11-20T12:18:43;1.10;;;0.90;;
38023;SDS011;23834;48.080;11.682;2022-11-20T12:26:38;0.57;;;0.57;;
38023;SDS011;23834;48.080;11.682;2022-11-20T12:36:19;0.73;;;0.73;;
38023;SDS011;23834;48.080;11.682;2022-11-20T12:44:08;0.87;;;0.87;;
38023;SDS011;23834;48.080;11.682;2022-11-20T12:47:39;0.60;;;0.60;;
38023;SDS011;23834;48.080;11.682;2022-11-20T12:49:47;1.00;;;1.00;;
38023;SDS011;23834;48.080;11.682;2022-11-20T12:52:19;0.70;;;0.60;;
38023;SDS011;23834;48.080;11.682;2022-11-20T12:55:02;1.10;;;1.00;;
38023;SDS011;23834;48.080;11.682;2022-11-20T13:00:17;0.80;;;0.80;;
38023;SDS011;23834;48.080;11.682;2022-11-20T13:03:06;0.73;;;0.73;;
38023;SDS011;23834;48.080;11.682;2022-11-20T13:08:00;0.87;;;0.80;;
38023;SDS011;23834;48.080;11.682;2022-11-20T13:13:08;0.90;;;0.80;;
38023;SDS011;23834;48.080;11.682;2022-11-20T13:15:40;0.80;;;0.80;;
38023;SDS011;23834;48.080;11.682;2022-11-20T13:18:11;0.70;;;0.70;;
38023;SDS011;23834;48.080;11.682;2022-11-20T13:20:41;0.80;;;0.80;;
38023;SDS011;23834;48.080;11.682;2022-11-20T13:23:06;0.77;;;0.77;;
38023;SDS011;23834;48.080;11.682;2022-11-20T13:25:35;0.80;;;0.70;;
38023;SDS011;23834;48.080;11.682;2022-11-20T13:30:36;0.70;;;0.70;;
38023;SDS011;23834;48.080;11.682;2022-11-20T13:35:31;0.97;;;0.73;;
38023;SDS011;23834;48.080;11.682;2022-11-20T13:38:02;0.70;;;0.70;;
38023;SDS011;23834;48.080;11.682;2022-11-20T13:40:28;1.10;;;1.10;;
38023;SDS011;23834;48.080;11.682;2022-11-20T13:45:23;0.90;;;0.90;;
38023;SDS011;23834;48.080;11.682;2022-11-20T13:47:49;0.60;;;0.60;;
38023;SDS011;23834;48.080;11.682;2022-11-20T13:50:15;1.00;;;0.70;;
38023;SDS011;23834;48.080;11.682;2022-11-20T14:00:25;1.10;;;1.00;;
38023;SDS011;23834;48.080;11.682;2022-11-20T14:02:59;1.30;;;1.20;;
38023;SDS011;23834;48.080;11.682;2022-11-20T14:05:25;1.10;;;1.10;;
38023;SDS011;23834;48.080;11.682;2022-11-20T14:07:50;1.60;;;1.50;;
38023;SDS011;23834;48.080;11.682;2022-11-20T14:10:21;1.60;;;1.50;;
38023;SDS011;23834;48.080;11.682;2022-11-20T14:12:46;1.43;;;1.33;;
38023;SDS011;23834;48.080;11.682;2022-11-20T14:15:23;1.03;;;0.93;;
38023;SDS011;23834;48.080;11.682;2022-11-20T14:17:48;1.37;;;1.27;;
38023;SDS011;23834;48.080;11.682;2022-11-20T14:20:14;1.17;;;1.17;;
38023;SDS011;23834;48.080;11.682;2022-11-20T14:22:47;1.40;;;1.30;;
38023;SDS011;23834;48.080;11.682;2022-11-20T14:27:39;1.40;;;1.30;;
38023;SDS011;23834;48.080;11.682;2022-11-20T14:30:06;1.17;;;1.17;;
38023;SDS011;23834;48.080;11.682;2022-11-20T14:32:31;1.10;;;1.10;;
38023;SDS011;23834;48.080;11.682;2022-11-20T14:35:01;1.20;;;1.10;;
38023;SDS011;23834;48.080;11.682;2022-11-20T14:37:28;1.10;;;1.00;;
38023;SDS011;23834;48.080;11.682;2022-11-20T14:39:56;0.90;;;0.90;;
38023;SDS011;23834;48.080;11.682;2022-11-20T14:42:24;1.37;;;1.20;;
38023;SDS011;23834;48.080;11.682;2022-11-20T14:44:50;1.10;;;1.00;;
38023;SDS011;23834;48.080;11.682;2022-11-20T14:47:21;1.13;;;1.03;;
38023;SDS011;23834;48.080;11.682;2022-11-20T14:49:46;1.33;;;1.10;;
38023;SDS011;23834;48.080;11.682;2022-11-20T14:52:16;0.90;;;0.90;;
38023;SDS011;23834;48.080;11.682;2022-11-20T14:54:45;1.03;;;1.03;;
38023;SDS011;23834;48.080;11.682;2022-11-20T14:57:20;0.90;;;0.90;;
38023;SDS011;23834;48.080;11.682;2022-11-20T14:59:45;1.10;;;1.00;;
38023;SDS011;23834;48.080;11.682;2022-11-20T15:02:11;1.10;;;1.10;;
38023;SDS011;23834;48.080;11.682;2022-11-20T15:04:46;1.00;;;1.00;;
38023;SDS011;23834;48.080;11.682;2022-11-20T15:07:11;0.87;;;0.83;;
38023;SDS011;23834;48.080;11.682;2022-11-20T15:09:47;0.90;;;0.90;;
38023;SDS011;23834;48.080;11.682;2022-11-20T15:12:16;0.80;;;0.80;;
38023;SDS011;23834;48.080;11.682;2022-11-20T15:14:42;1.00;;;1.00;;
38023;SDS011;23834;48.080;11.682;2022-11-20T15:17:08;1.23;;;1.10;;
38023;SDS011;23834;48.080;11.682;2022-11-20T15:19:34;1.00;;;1.00;;
38023;SDS011;23834;48.080;11.682;2022-11-20T15:22:00;1.00;;;1.00;;
38023;SDS011;23834;48.080;11.682;2022-11-20T15:24:25;1.30;;;1.20;;
38023;SDS011;23834;48.080;11.682;2022-11-20T15:26:50;1.20;;;1.10;;
38023;SDS011;23834;48.080;11.682;2022-11-20T15:29:15;1.13;;;1.03;;
38023;SDS011;23834;48.080;11.682;2022-11-20T15:31:44;0.93;;;0.93;;
38023;SDS011;23834;48.080;11.682;2022-11-20T15:34:13;1.10;;;1.10;;
38023;SDS011;23834;48.080;11.682;2022-11-20T15:36:39;0.97;;;0.87;;
38023;SDS011;23834;48.080;11.682;2022-11-20T15:39:04;0.80;;;0.80;;
38023;SDS011;23834;48.080;11.682;2022-11-20T15:41:32;0.90;;;0.90;;
38023;SDS011;23834;48.080;11.682;2022-11-20T15:43:57;1.00;;;0.90;;
38023;SDS011;23834;48.080;11.682;2022-11-20T15:46:23;1.10;;;1.10;;
38023;SDS011;23834;48.080;11.682;2022-11-20T15:48:51;1.00;;;1.00;;
38023;SDS011;23834;48.080;11.682;2022-11-20T15:53:42;1.17;;;1.07;;
38023;SDS011;23834;48.080;11.682;2022-11-20T15:56:13;1.00;;;1.00;;
38023;SDS011;23834;48.080;11.682;2022-11-20T15:58:39;1.10;;;1.10;;
38023;SDS011;23834;48.080;11.682;2022-11-20T16:01:04;1.30;;;1.20;;